Flight Track Log - Related Links

Times and Time Zones

All times are in EDT time to prevent confusion due to time zone crossing. See the VH-ISE flight status page for this flight to view local times or setup timezone preferences in your user account.

Time Position Orientation Groundspeed Altitude Reporting Facility
EDT Latitude Longitude Course Direction KTS MPH feet Rate Location/Type
Thu 09:52:13 PM -27.5892 152.9942 279° West 126 145 1,000  Level Aus ATC (RADAR)
Thu 09:52:28 PM -27.5878 152.9840 279° West 131 151 1,000 109 Level Aus ATC (RADAR)
Thu 09:53:08 PM -27.6008 152.9601 238° Southwest 130 150 1,100 455 Climbing Aus ATC (RADAR)
Thu 09:54:53 PM -27.6333 152.9079 235° Southwest 98 113 2,100 717 Climbing Aus ATC (RADAR)
Thu 09:55:47 PM -27.6414 152.8846 249° West 86 99 3,000 944 Climbing Aus ATC (RADAR)
Thu 09:56:22 PM -27.6453 152.8680 255° West 91 105 3,500 379 Climbing Aus ATC (RADAR)
Thu 09:57:22 PM -27.6445 152.8302 271° West 128 147 3,600 80 Climbing Aus ATC (RADAR)
Thu 09:57:37 PM -27.6451 152.8196 266° West 133 153 3,600 360 Level Aus ATC (RADAR)
Thu 09:58:12 PM -27.6421 152.7967 278° West 132 152 3,900 800 Climbing Aus ATC (RADAR)
Thu 09:59:07 PM -27.6137 152.7851 340° North 112 129 4,800 947 Climbing Aus ATC (RADAR)
Thu 09:59:47 PM -27.5956 152.7774 339° North 104 120 5,400 821 Climbing Aus ATC (RADAR)
Thu 10:00:42 PM -27.5781 152.7599 319° Northwest 97 112 6,100 800 Climbing Aus ATC (RADAR)
Thu 10:01:17 PM -27.5734 152.7426 287° West 98 113 6,600 768 Climbing Aus ATC (RADAR)
Thu 10:02:47 PM -27.5832 152.7095 252° West 78 90 7,700 743 Climbing Aus ATC (RADAR)
Thu 10:03:02 PM -27.5860 152.7044 238° Southwest 79 91 7,900 444 Climbing Aus ATC (RADAR)
Thu 10:03:41 PM -27.5968 152.6892 232° Southwest 90 104 8,100 121 Climbing Aus ATC (RADAR)
Thu 10:04:41 PM -27.6222 152.6623 223° Southwest 127 146 8,100  Level Aus ATC (RADAR)
Thu 10:05:16 PM -27.6350 152.6441 231° Southwest 127 146 8,100  Level Aus ATC (RADAR)
Thu 10:06:11 PM -27.6570 152.6156 229° Southwest 132 152 8,100  Level Aus ATC (RADAR)
Thu 10:07:11 PM -27.6806 152.5834 230° Southwest 133 153 8,100  Level Aus ATC (RADAR)
Thu 10:07:46 PM -27.6944 152.5645 230° Southwest 134 154 8,100  Level Aus ATC (RADAR)
Thu 10:08:01 PM -27.7003 152.5563 231° Southwest 134 154 8,100  Level Aus ATC (RADAR)
Thu 10:08:36 PM -27.7146 152.5377 229° Southwest 136 157 8,100  Level Aus ATC (RADAR)
Thu 10:09:36 PM -27.7377 152.5062 230° Southwest 131 151 8,100  Level Aus ATC (RADAR)
Thu 10:10:06 PM -27.7498 152.4902 229° Southwest 133 153 8,100  Level Aus ATC (RADAR)
Thu 10:11:31 PM -27.7840 152.4457 229° Southwest 132 152 8,100  Level Aus ATC (RADAR)
Thu 10:11:46 PM -27.7910 152.4381 224° Southwest 135 155 8,100  Level Aus ATC (RADAR)
Thu 10:13:10 PM -27.8265 152.3939 228° Southwest 136 157 8,100  Level Aus ATC (RADAR)
Thu 10:13:25 PM -27.8325 152.3860 230° Southwest 135 155 8,100  Level Aus ATC (RADAR)
Thu 10:14:00 PM -27.8464 152.3666 231° Southwest 137 158 8,100  Level Aus ATC (RADAR)
Thu 10:14:50 PM -27.8629 152.3372 238° Southwest 132 152 8,100  Level Aus ATC (RADAR)
Thu 10:15:25 PM -27.8743 152.3169 238° Southwest 130 150 8,100 -176 Level Aus ATC (RADAR)
Thu 10:17:40 PM -27.9436 152.2856 202° Southwest 134 154 7,600 -333 Descending Aus ATC (RADAR)
Thu 10:18:25 PM -27.9716 152.2871 177° South 134 154 7,100 -600 Descending Aus ATC (RADAR)
Thu 10:18:40 PM -27.9814 152.2862 185° South 137 158 7,000 -480 Descending Aus ATC (RADAR)
Thu 10:19:15 PM -28.0023 152.2805 194° South 132 152 6,700 -494 Descending Aus ATC (RADAR)
Thu 10:20:05 PM -28.0337 152.2720 193° South 139 160 6,300 -467 Descending Aus ATC (RADAR)
Thu 10:20:45 PM -28.0571 152.2638 197° South 132 152 6,000 -255 Descending Aus ATC (RADAR)
Thu 10:21:39 PM -28.0892 152.2557 193° South 128 147 5,900 -53 Descending Aus ATC (RADAR)
Thu 10:22:39 PM -28.1238 152.2540 182° South 127 146 5,900 63 Level Aus ATC (RADAR)
Thu 10:23:14 PM -28.1436 152.2501 190° South 125 144 6,000 240 Climbing Aus ATC (RADAR)
Thu 10:23:29 PM -28.1522 152.2487 188° South 125 144 6,100  Climbing Aus ATC (RADAR)
Thu 10:24:04 PM -28.1716 152.2447 190° South 121 139 6,000  Descending Aus ATC (RADAR)
Thu 10:25:05 PM -28.2037 152.2414 185° South 114 131 6,100 -63 Climbing Aus ATC (RADAR)
Thu 10:25:39 PM -28.2113 152.2672 108° East 141 162 5,900 -61 Descending Aus ATC (RADAR)
Thu 10:26:44 PM -28.2172 152.3131 98° East 136 157 6,000 100 Climbing Aus ATC (RADAR)
Thu 10:27:39 PM -28.1897 152.3265 23° Northeast 140 161 6,100  Climbing Aus ATC (RADAR)
Thu 10:28:19 PM -28.1944 152.2999 259° West 122 140 6,000  Descending Aus ATC (RADAR)
Thu 10:28:34 PM -28.1955 152.2917 261° West 114 131 6,100 -120 Climbing Aus ATC (RADAR)
Thu 10:29:09 PM -28.1923 152.2690 279° West 122 140 5,900 -71 Descending Aus ATC (RADAR)
Thu 10:29:59 PM -28.1906 152.2361 273° West 124 143 6,000 141 Climbing Aus ATC (RADAR)
Thu 10:30:34 PM -28.1940 152.2140 260° West 123 142 6,100 64 Climbing Aus ATC (RADAR)
Thu 10:31:33 PM -28.2150 152.2433 129° Southeast 148 170 6,100 -128 Level Aus ATC (RADAR)
Thu 10:32:08 PM -28.2150 152.2687 90° East 137 158 5,900 -57 Descending Aus ATC (RADAR)
Thu 10:33:18 PM -28.1900 152.2916 39° Northeast 146 168 6,000 67 Climbing Aus ATC (RADAR)
Thu 10:33:38 PM -28.1904 152.2756 269° West 139 160 6,000 -109 Level Aus ATC (RADAR)
Thu 10:34:13 PM -28.1923 152.2532 264° West 125 144 5,900  Descending Aus ATC (RADAR)
Thu 10:35:13 PM -28.1875 152.2139 278° West 125 144 6,000 126 Climbing Aus ATC (RADAR)
Thu 10:35:48 PM -28.1831 152.1910 282° West 127 146 6,100 -133 Climbing Aus ATC (RADAR)
Thu 10:36:43 PM -28.1799 152.1582 276° West 111 128 5,800 -467 Descending Aus ATC (RADAR)
Thu 10:37:18 PM -28.1769 152.1395 280° West 105 121 5,400 -800 Descending Aus ATC (RADAR)
Thu 10:38:28 PM -28.1701 152.1011 281° West 103 119 4,400 -847 Descending Aus ATC (RADAR)
Thu 10:38:43 PM -28.1682 152.0925 284° West 107 123 4,200 -720 Descending Aus ATC (RADAR)
Thu 10:39:18 PM -28.1646 152.0712 281° West 114 131 3,800 -480 Descending Aus ATC (RADAR)
Thu 10:40:48 PM -28.1582 152.0170 278° West 114 131 3,200 -175 Descending Aus ATC (RADAR)
Thu 10:43:52 PM -28.1432 151.9108 279° West 103 119 3,000  Descending Aus ATC (RADAR)
Thu 10:44:07 PM -28.1417 151.9028 282° West 102 117 3,200 975 Climbing Aus ATC (RADAR)
Thu 10:45:12 PM -28.1393 151.8678 274° West 99 114 4,300 1,050 Climbing Aus ATC (RADAR)
Thu 10:45:27 PM -28.1376 151.8604 285° West 97 112 4,600 840 Climbing Aus ATC (RADAR)
Thu 10:46:02 PM -28.1163 151.8588 356° North 115 132 5,000 375 Climbing Aus ATC (RADAR)
Thu 10:46:47 PM -28.0979 151.8840 50° Northeast 140 161 5,100 -150 Climbing Aus ATC (RADAR)
Thu 10:47:22 PM -28.0723 151.8829 358° North 159 183 4,800 372 Descending Aus ATC (RADAR)
Thu 10:49:12 PM -28.0131 151.9061 19° North 128 147 6,000 576 Climbing Aus ATC (RADAR)
Thu 10:49:27 PM -28.0032 151.9087 13° North 136 157 6,000 -120 Level Aus ATC (RADAR)
Thu 10:50:02 PM -27.9792 151.8995 341° North 150 173 5,900  Descending Aus ATC (RADAR)
Thu 10:51:02 PM -27.9392 151.8839 341° North 149 171 6,000 63 Climbing Aus ATC (RADAR)
Thu 10:51:37 PM -27.9155 151.8772 346° North 149 171 6,000  Level Aus ATC (RADAR)
Thu 10:52:32 PM -27.8771 151.8667 346° North 154 177 6,000  Level Aus ATC (RADAR)
Thu 10:53:17 PM -27.8455 151.8588 347° North 155 178 6,000  Level Aus ATC (RADAR)
Thu 10:54:07 PM -27.8081 151.8478 345° North 167 192 6,000  Level Aus ATC (RADAR)
Thu 10:54:36 PM -27.7871 151.8419 346° North 156 180 6,000  Level Aus ATC (RADAR)
Thu 10:55:36 PM -27.7439 151.8311 347° North 158 182 6,000  Level Aus ATC (RADAR)
Thu 10:55:56 PM -27.7295 151.8270 346° North 159 183 6,000  Level Aus ATC (RADAR)
Thu 10:56:31 PM -27.7045 151.8193 345° North 159 183 6,000  Level Aus ATC (RADAR)
Thu 10:57:16 PM -27.6720 151.8116 348° North 158 182 6,000  Level Aus ATC (RADAR)
Thu 10:58:21 PM -27.6256 151.7968 344° North 158 182 6,000  Level Aus ATC (RADAR)
Thu 10:58:56 PM -27.6018 151.7882 342° North 155 178 6,000  Level Aus ATC (RADAR)
Thu 10:59:11 PM -27.5913 151.7843 342° North 156 180 6,000  Level Aus ATC (RADAR)
Thu 10:59:46 PM -27.5669 151.7764 344° North 156 180 6,000  Level Aus ATC (RADAR)
Thu 11:00:41 PM -27.5309 151.7570 334° Northwest 154 177 6,000  Level Aus ATC (RADAR)
Thu 11:01:21 PM -27.5057 151.7417 332° Northwest 153 176 6,000  Level Aus ATC (RADAR)
Thu 11:02:21 PM -27.4686 151.7202 333° Northwest 146 168 6,000 -261 Level Aus ATC (RADAR)
Thu 11:03:16 PM -27.4406 151.6929 319° Northwest 148 170 5,500 -533 Descending Aus ATC (RADAR)
Thu 11:03:51 PM -27.4244 151.6722 311° West 150 173 5,200 -494 Descending Aus ATC (RADAR)
Thu 11:04:41 PM -27.4020 151.6406 309° West 156 180 4,800 -382 Descending Aus ATC (RADAR)
Thu 11:05:41 PM -27.3728 151.6051 313° West 152 175 4,500 -189 Descending Aus ATC (RADAR)
Thu 11:06:16 PM -27.3550 151.5928 328° Northwest 148 170 4,500  Level Aus ATC (RADAR)
Thu 11:07:10 PM -27.3237 151.5685 325° Northwest 134 154 4,500 67 Level Aus ATC (RADAR)
Thu 11:07:45 PM -27.3056 151.5538 324° Northwest 136 157 4,600 -57 Climbing Aus ATC (RADAR)
Thu 11:08:55 PM -27.2680 151.5285 329° Northwest 133 153 4,400 -70 Descending Aus ATC (RADAR)
Thu 11:09:11 PM -27.2590 151.5361 37° Northeast 140 161 4,500 240 Climbing Aus ATC (RADAR)
Thu 11:09:45 PM -27.2475 151.5573 59° Northeast 134 154 4,600 -214 Climbing Aus ATC (RADAR)
Thu 11:10:35 PM -27.2502 151.5918 95° East 134 154 4,200 -565 Descending Aus ATC (RADAR)
Thu 11:11:10 PM -27.2527 151.6171 97° East 137 158 3,800 -316 Descending Aus ATC (RADAR)
Thu 11:12:10 PM -27.2824 151.6420 143° Southeast 129 148 3,700  Descending Aus ATC (RADAR)
Thu 11:12:50 PM -27.3004 151.6567 144° Southeast 120 138 3,800 -343 Climbing Aus ATC (RADAR)
Thu 11:13:55 PM -27.3291 151.6773 147° Southeast 113 130 3,100 -600 Descending Aus ATC (RADAR)
Thu 11:14:10 PM -27.3342 151.6833 134° Southeast 105 121 3,000 -735 Descending Aus ATC (RADAR)
Thu 11:14:44 PM -27.3487 151.6961 142° Southeast 113 130 2,500 -605 Descending Aus ATC (RADAR)
Thu 11:16:19 PM -27.3886 151.7266 146° Southeast 110 127 1,700 -207 Descending Aus ATC (RADAR)
Thu 11:17:09 PM -27.4103 151.7437 145° Southeast 110 127 2,000 600 Climbing Aus ATC (RADAR)
Thu 11:17:29 PM -27.4197 151.7496 151° Southeast 114 131 2,400 927 Climbing Aus ATC (RADAR)
Thu 11:18:59 PM -27.4529 151.7720 149° Southeast 88 101 3,700 877 Climbing Aus ATC (RADAR)
Thu 11:19:39 PM -27.4679 151.7824 148° Southeast 95 109 4,300 982 Climbing Aus ATC (RADAR)
Thu 11:19:54 PM -27.4699 151.7893 108° East 102 117 4,600 720 Climbing Aus ATC (RADAR)
Thu 11:20:29 PM -27.4581 151.8012 41° Northeast 100 115 4,900 282 Climbing Aus ATC (RADAR)
Thu 11:21:19 PM -27.4274 151.8003 359° North 130 150 5,000 71 Climbing Aus ATC (RADAR)
Thu 11:21:54 PM -27.4038 151.7979 355° North 139 160 5,000  Level Aus ATC (RADAR)
Thu 11:22:49 PM -27.3661 151.7922 352° North 147 169 5,000  Level Aus ATC (RADAR)
Thu 11:23:39 PM -27.3310 151.7934 North 150 173 5,000  Level Aus ATC (RADAR)
Thu 11:24:29 PM -27.2966 151.7970 North 148 170 5,000  Level Aus ATC (RADAR)
Thu 11:25:04 PM -27.2720 151.7980 North 150 173 5,000  Level Aus ATC (RADAR)
Thu 11:25:58 PM -27.2339 151.7994 North 150 173 5,000  Level Aus ATC (RADAR)
Thu 11:26:33 PM -27.2093 151.8014 North 147 169 5,000  Level Aus ATC (RADAR)
Thu 11:27:33 PM -27.1679 151.8070 North 148 170 5,000  Level Aus ATC (RADAR)
Thu 11:28:33 PM -27.1254 151.8096 North 152 175 5,000  Level Aus ATC (RADAR)
Thu 11:29:08 PM -27.1009 151.8117 North 151 174 5,000  Level Aus ATC (RADAR)
Thu 11:29:23 PM -27.0902 151.8126 North 152 175 5,000  Level Aus ATC (RADAR)
Thu 11:29:58 PM -27.0654 151.8139 North 152 175 5,000  Level Aus ATC (RADAR)
Thu 11:30:58 PM -27.0217 151.8050 350° North 156 180 5,000  Level Aus ATC (RADAR)
Thu 11:31:33 PM -26.9971 151.8022 354° North 153 176 5,000  Level Aus ATC (RADAR)
Thu 11:32:38 PM -26.9525 151.8061 North 148 170 5,000  Level Aus ATC (RADAR)
Thu 11:33:38 PM -26.9107 151.8100 North 151 174 5,000  Level Aus ATC (RADAR)
Thu 11:34:13 PM -26.8860 151.8131 North 153 176 5,000  Level Aus ATC (RADAR)
Thu 11:34:33 PM -26.8722 151.8150 North 152 175 5,000  Level Aus ATC (RADAR)
Thu 11:35:08 PM -26.8486 151.8179 North 147 169 5,000  Level Aus ATC (RADAR)
Thu 11:36:04 PM -26.8106 151.8220 North 148 170 5,000  Level Aus ATC (RADAR)
Thu 11:36:38 PM -26.7873 151.8213 358° North 144 166 5,000 -128 Level Aus ATC (RADAR)
Thu 11:37:38 PM -26.7499 151.8228 North 130 150 4,800 -263 Descending Aus ATC (RADAR)
Thu 11:38:32 PM -26.7192 151.8239 North 124 143 4,500 -472 Descending Aus ATC (RADAR)
Thu 11:39:07 PM -26.6985 151.8280 10° North 131 151 4,100 -720 Descending Aus ATC (RADAR)
Thu 11:39:22 PM -26.6897 151.8298 10° North 130 150 3,900 -840 Descending Aus ATC (RADAR)
Thu 11:39:57 PM -26.6680 151.8324 North 133 153 3,400 -821 Descending Aus ATC (RADAR)
Thu 11:40:57 PM -26.6327 151.8333 North 126 145 2,600 -632 Descending Aus ATC (RADAR)
Thu 11:41:32 PM -26.6129 151.8353 North 122 140 2,400 321 Descending Aus ATC (RADAR)
Thu 11:44:09 PM -26.6677 151.9083 325° Northwest 368 Descending Aus ATC (Calculated)
Thu 11:44:47 PM -26.6677 151.9083 325° Northwest 976 Level Aus ATC (Calculated)
Thu 11:46:00 PM -26.6429 151.8905 327° Northwest  Level FlightAware Approximate
Thu 11:47:00 PM -26.6595 151.9102 134° Southeast  Level Estimated
Thu 11:48:00 PM -26.6761 151.9299 133° Southeast  Level FlightAware Approximate
Thu 11:49:00 PM -26.6926 151.9496 133° Southeast  Level FlightAware Approximate
Thu 11:49:41 PM -26.6076 151.8608 133° Southeast 87 100 5,400  Level Aus ATC (RADAR)
Thu 11:49:56 PM -26.6117 151.8665 130° Southeast 90 104 5,500 840 Climbing Aus ATC (RADAR)
Thu 11:50:31 PM -26.6227 151.8799 132° Southeast 98 113 6,100 960 Climbing Aus ATC (RADAR)
Thu 11:51:36 PM -26.6419 151.9037 132° Southeast 91 105 7,100 540 Climbing Aus ATC (RADAR)
Thu 11:52:11 PM -26.6534 151.9196 129° Southeast 112 129 7,000 -52 Descending Aus ATC (RADAR)
Thu 11:53:31 PM -26.6888 151.9582 136° Southeast 132 152 7,000  Level Aus ATC (RADAR)
Thu 11:54:56 PM -26.7267 152.0034 133° Southeast 139 160 7,000  Level Aus ATC (RADAR)
Thu 11:55:16 PM -26.7342 152.0152 125° Southeast 138 159 7,000  Level Aus ATC (RADAR)
Thu 11:55:51 PM -26.7488 152.0350 130° Southeast 140 161 7,000  Level Aus ATC (RADAR)
Thu 11:56:51 PM -26.7739 152.0681 130° Southeast 138 159 7,000  Level Aus ATC (RADAR)
Thu 11:57:31 PM -26.7925 152.0897 134° Southeast 143 165 7,000  Level Aus ATC (RADAR)
Thu 11:58:30 PM -26.8198 152.1223 133° Southeast 142 163 7,000  Level Aus ATC (RADAR)
Thu 11:59:25 PM -26.8446 152.1516 134° Southeast 139 160 7,000  Level Aus ATC (RADAR)
Fri 12:00:10 AM -26.8646 152.1752 134° Southeast 138 159 7,000  Level Aus ATC (RADAR)
Fri 12:00:45 AM -26.8805 152.1935 134° Southeast 139 160 7,000  Level Aus ATC (RADAR)
Fri 12:01:45 AM -26.9081 152.2247 135° Southeast 140 161 7,000  Level Aus ATC (RADAR)
Fri 12:02:20 AM -26.9238 152.2435 133° Southeast 140 161 7,000  Level Aus ATC (RADAR)
Fri 12:03:20 AM -26.9492 152.2770 130° Southeast 140 161 7,000  Level Aus ATC (RADAR)
Fri 12:04:15 AM -26.9738 152.3068 133° Southeast 140 161 7,000  Level Aus ATC (RADAR)
Fri 12:04:55 AM -26.9911 152.3289 131° Southeast 141 162 7,000  Level Aus ATC (RADAR)
Fri 12:05:10 AM -26.9981 152.3369 135° Southeast 142 163 7,000  Level Aus ATC (RADAR)
Fri 12:05:45 AM -27.0132 152.3558 132° Southeast 140 161 7,000  Level Aus ATC (RADAR)
Fri 12:06:50 AM -27.0410 152.3905 132° Southeast 135 155 7,000  Level Aus ATC (RADAR)
Fri 12:07:25 AM -27.0577 152.4077 138° Southeast 139 160 7,000  Level Aus ATC (RADAR)
Fri 12:08:14 AM -27.0798 152.4341 133° Southeast 136 157 7,000  Level Aus ATC (RADAR)
Fri 12:08:49 AM -27.0955 152.4521 135° Southeast 138 159 7,000  Level Aus ATC (RADAR)
Fri 12:09:59 AM -27.1263 152.4904 132° Southeast 141 162 7,000  Level Aus ATC (RADAR)
Fri 12:10:14 AM -27.1327 152.4993 129° Southeast 142 163 7,000  Level Aus ATC (RADAR)
Fri 12:10:54 AM -27.1505 152.5209 133° Southeast 141 162 7,000  Level Aus ATC (RADAR)
Fri 12:11:54 AM -27.1775 152.5516 135° Southeast 138 159 7,000  Level Aus ATC (RADAR)
Fri 12:12:29 AM -27.1935 152.5690 136° Southeast 136 157 7,000  Level Aus ATC (RADAR)
Fri 12:13:24 AM -27.2178 152.5979 133° Southeast 139 160 7,000  Level Aus ATC (RADAR)
Fri 12:13:59 AM -27.2331 152.6158 134° Southeast 137 158 7,000  Level Aus ATC (RADAR)
Fri 12:14:59 AM -27.2609 152.6436 138° Southeast 131 151 7,000  Level Aus ATC (RADAR)
Fri 12:15:19 AM -27.2708 152.6520 143° Southeast 132 152 7,000  Level Aus ATC (RADAR)
Fri 12:15:54 AM -27.2836 152.6713 127° Southeast 131 151 7,000 -300 Level Aus ATC (RADAR)
Fri 12:16:59 AM -27.3115 152.7056 132° Southeast 137 158 6,500 -420 Descending Aus ATC (RADAR)
Fri 12:17:34 AM -27.3281 152.7236 136° Southeast 140 161 6,300 -353 Descending Aus ATC (RADAR)
Fri 12:18:24 AM -27.3517 152.7498 135° Southeast 140 161 6,000 -429 Descending Aus ATC (RADAR)
Fri 12:18:58 AM -27.3701 152.7661 142° Southeast 142 163 5,700 -605 Descending Aus ATC (RADAR)
Fri 12:20:23 AM -27.4240 152.7901 158° South 144 166 4,800 -600 Descending Aus ATC (RADAR)
Fri 12:20:38 AM -27.4332 152.7946 157° South 143 165 4,700 -436 Descending Aus ATC (RADAR)
Fri 12:21:18 AM -27.4586 152.8070 157° South 146 168 4,400 -442 Descending Aus ATC (RADAR)
Fri 12:22:13 AM -27.4934 152.8241 156° South 147 169 4,000 -533 Descending Aus ATC (RADAR)
Fri 12:22:48 AM -27.5078 152.8443 129° Southeast 138 159 3,600 -635 Descending Aus ATC (RADAR)
Fri 12:23:38 AM -27.5182 152.8808 108° East 141 162 3,100 -635 Descending Aus ATC (RADAR)
Fri 12:24:13 AM -27.5282 152.9025 117° Southeast 131 151 2,700 -743 Descending Aus ATC (RADAR)
Fri 12:25:23 AM -27.5553 152.9343 134° Southeast 117 135 1,800 -733 Descending Aus ATC (RADAR)
Fri 12:25:43 AM -27.5587 152.9455 109° East 110 127 1,600 -764 Descending Aus ATC (RADAR)
Fri 12:26:18 AM -27.5629 152.9646 104° East 105 121 1,100 -857 Descending Aus ATC (RADAR)
Fri 12:29:00 AM -27.5690 153.0004 101° East  Level FlightAware Approximate
Fri 12:36:00 AM -27.5703 153.0080 134° Southeast  Level FlightAware Approximate
Fri 12:37:00 AM -27.5703 153.0081 134° Southeast  Level Estimated
Fri 12:38:00 AM -27.5703 153.0081 134° Southeast  Level Estimated
Fri 12:39:00 AM -27.5703 153.0081 134° Southeast  Level Estimated
Fri 12:40:00 AM -27.5703 153.0081 134° Southeast  Level Estimated
Fri 12:41:00 AM -27.5703 153.0081 134° Southeast  Level Estimated
Fri 12:42:00 AM -27.5703 153.0081 134° Southeast  Level Estimated
Fri 12:43:00 AM -27.5703 153.0081 134° Southeast  Level Estimated
Fri 12:44:00 AM -27.5703 153.0081 134° Southeast  Level Estimated
Fri 12:45:00 AM -27.5703 153.0081 134° Southeast  Level Estimated
Fri 12:46:00 AM -27.5703 153.0081 134° Southeast  Level Estimated
Fri 12:47:00 AM -27.5703 153.0081 134° Southeast  Level Estimated
Fri 12:48:00 AM -27.5703 153.0081 134° Southeast  Level Estimated
Fri 12:49:00 AM -27.5703 153.0081 134° Southeast  Level Estimated
Fri 12:50:00 AM -27.5703 153.0081 134° Southeast  Level Estimated
Fri 12:51:00 AM -27.5703 153.0081 134° Southeast  Level Estimated
Fri 12:52:00 AM -27.5703 153.0081 134° Southeast  Level Estimated
Fri 12:53:00 AM -27.5703 153.0081 134° Southeast  Level Estimated
Fri 12:54:00 AM -27.5703 153.0081 134° Southeast  Level Estimated
Fri 12:55:00 AM -27.5703 153.0081 134° Southeast  Level Estimated
Fri 12:56:00 AM -27.5703 153.0081 134° Southeast  Level Estimated
Fri 12:57:00 AM -27.5703 153.0081 134° Southeast  Level Estimated
Fri 12:58:00 AM -27.5703 153.0081 134° Southeast  Level Estimated
Fri 12:59:00 AM -27.5703 153.0081 134° Southeast  Level Estimated
Fri 01:00:00 AM -27.5703 153.0081 134° Southeast  Level Estimated
Fri 01:01:00 AM -27.5703 153.0081 134° Southeast  Level Estimated
Fri 01:02:00 AM -27.5703 153.0081 134° Southeast  Level Estimated
Fri 01:03:00 AM -27.5703 153.0081 134° Southeast  Level Estimated

Login

Don't have an account? Register now (free) for customized features, flight alerts, and more!